Flight Track Log - Related Links

Times and Time Zones

All times are in EDT time to prevent confusion due to time zone crossing. See the N658DS flight status page for this flight to view local times or setup timezone preferences in your user account.

Time Position Orientation Groundspeed Altitude Reporting Facility
EDT Latitude Longitude Course Direction KTS MPH feet Rate Location/Type
Sat 12:33:00 PM 26.2610 -81.6389 42° Northeast  Level FlightAware Approximate
Sat 12:34:00 PM 26.2809 -81.6191 42° Northeast  Level FlightAware Approximate
Sat 12:35:00 PM 26.3007 -81.5993 42° Northeast  Level FlightAware Approximate
Sat 12:36:00 PM 26.3192 -81.5783 61° Northeast  Level FlightAware Approximate
Sat 12:37:00 PM 26.3321 -81.5524 61° Northeast  Level FlightAware Approximate
Sat 12:38:00 PM 26.3505 -81.5311 45° Northeast  Level FlightAware Approximate
Sat 12:39:00 PM 26.3694 -81.5102 45° Northeast  Level FlightAware Approximate
Sat 12:40:00 PM 26.3883 -81.4894 45° Northeast  Level FlightAware Approximate
Sat 12:41:00 PM 26.4073 -81.4685 45° Northeast  Level FlightAware Approximate
Sat 12:42:00 PM 26.4262 -81.4476 45° Northeast  Level FlightAware Approximate
Sat 12:42:34 PM 26.4308 -81.4917 45° Northeast 146 168 7,100  Level Miami Center
Sat 12:43:00 PM 26.4451 -81.4268 45° Northeast  Level FlightAware Approximate
Sat 12:43:34 PM 26.4631 -81.4675 34° Northeast 146 168 7,100  Level Miami Center
Sat 12:44:00 PM 26.4640 -81.4059 45° Northeast  Level FlightAware Approximate
Sat 12:44:34 PM 26.4953 -81.4361 41° Northeast 146 168 7,100  Level Miami Center
Sat 12:45:00 PM 26.4830 -81.3850 45° Northeast  Level FlightAware Approximate
Sat 12:45:34 PM 26.5272 -81.4142 32° Northeast 146 168 7,100  Level Miami Center
Sat 12:46:00 PM 26.5019 -81.3641 45° Northeast  Level FlightAware Approximate
Sat 12:46:34 PM 26.5617 -81.3856 37° Northeast 146 168 7,100  Level Miami Center
Sat 12:47:00 PM 26.5208 -81.3432 45° Northeast  Level FlightAware Approximate
Sat 12:47:34 PM 26.5856 -81.3517 52° Northeast 165 190 7,000  Level Miami Center
Sat 12:48:34 PM 26.6036 -81.3128 63° Northeast 148 170 7,000  Level Miami Center
Sat 12:49:34 PM 26.6192 -81.2739 66° East 143 165 7,000 50 Level Miami Center
Sat 12:50:34 PM 26.6369 -81.2372 62° Northeast 137 158 7,100 50 Climbing Miami Center
Sat 12:51:34 PM 26.6572 -81.1964 61° Northeast 137 158 7,100 -50 Level Miami Center
Sat 12:52:34 PM 26.6792 -81.1600 56° Northeast 142 163 7,000 -50 Descending Miami Center
Sat 12:53:34 PM 26.7111 -81.1308 39° Northeast 135 155 7,000  Level Miami Center
Sat 12:54:34 PM 26.7494 -81.1136 22° Northeast 141 162 7,000  Level Miami Center
Sat 12:55:34 PM 26.7856 -81.0847 36° Northeast 147 169 7,000  Level Miami Center
Sat 12:56:34 PM 26.8175 -81.0625 32° Northeast 147 169 7,000  Level Miami Center
Sat 12:57:34 PM 26.8539 -81.0406 28° Northeast 142 163 7,000  Level Miami Center
Sat 12:58:34 PM 26.8897 -81.0278 18° North 137 158 7,000  Level Miami Center
Sat 12:59:34 PM 26.9297 -81.0131 18° North 137 158 7,000  Level Miami Center
Sat 01:00:34 PM 26.9717 -81.0028 12° North 137 158 7,000 50 Level Miami Center
Sat 01:01:34 PM 27.0078 -80.9856 23° Northeast 143 165 7,100 50 Climbing Miami Center
Sat 01:02:34 PM 27.0358 -80.9517 47° Northeast 138 159 7,100  Level Miami Center
Sat 01:03:34 PM 27.0636 -80.9292 36° Northeast 138 159 7,100  Level Miami Center
Sat 01:04:34 PM 27.0978 -80.9000 37° Northeast 143 165 7,100  Level Miami Center
Sat 01:05:34 PM 27.1239 -80.8636 51° Northeast 138 159 7,100 -200 Level Miami Center
Sat 01:06:34 PM 27.1500 -80.8225 54° Northeast 144 166 6,700 -450 Descending Miami Center
Sat 01:07:34 PM 27.1781 -80.7931 43° Northeast 152 175 6,200 -500 Descending Miami Center
Sat 01:08:34 PM 27.2061 -80.7544 51° Northeast 152 175 5,700 -600 Descending Miami Center
Sat 01:09:34 PM 27.2367 -80.7133 50° Northeast 152 175 5,000 -350 Descending Miami Center
Sat 01:10:34 PM 27.2581 -80.6861 49° Northeast 152 175 5,000  Level Miami Center
Sat 01:11:34 PM 27.2883 -80.6450 50° Northeast 147 169 5,000 -150 Level Miami Center
Sat 01:12:34 PM 27.3103 -80.6131 52° Northeast 147 169 4,700 -400 Descending Miami Center
Sat 01:13:34 PM 27.3361 -80.5764 52° Northeast 147 169 4,200 -350 Descending Miami Center
Sat 01:14:34 PM 27.3622 -80.5375 53° Northeast 147 169 4,000 -50 Descending Miami Center
Sat 01:15:34 PM 27.3861 -80.5008 54° Northeast 147 169 4,100  Climbing Miami Center
Sat 01:16:34 PM 27.4017 -80.4664 63° Northeast 142 163 4,000 -50 Descending Miami Center
Sat 01:17:34 PM 27.4214 -80.4294 59° Northeast 137 158 4,000 50 Level Miami Center
Sat 01:18:34 PM 27.4392 -80.3856 65° Northeast 137 158 4,100 50 Climbing Miami Center
Sat 01:19:34 PM 27.4567 -80.3464 63° Northeast 137 158 4,100 -250 Level Miami Center
Sat 01:20:34 PM 27.4744 -80.3072 63° Northeast 137 158 3,600 -550 Descending Miami Center
Sat 01:21:34 PM 27.4942 -80.2703 59° Northeast 137 158 3,000 -250 Descending Miami Center
Sat 01:22:34 PM 27.5117 -80.2286 65° Northeast 137 158 3,100 50 Climbing Miami Center
Sat 01:23:34 PM 27.5394 -80.1989 43° Northeast 137 158 3,100  Level Miami Center
Sat 01:24:34 PM 27.5714 -80.1742 34° Northeast 137 158 3,100 -50 Level Miami Center
Sat 01:25:34 PM 27.5897 -80.2006 308° West 103 119 3,000 -200 Descending Miami Center
Sat 01:26:34 PM 27.5972 -80.2358 283° West 109 125 2,700 -450 Descending Miami Center
Sat 01:27:34 PM 27.6086 -80.2783 287° West 123 142 2,100 -450 Descending Miami Center
Sat 01:28:34 PM 27.6164 -80.3092 286° West 116 133 1,800 -200 Descending Miami Center
Sat 01:29:34 PM 27.6261 -80.3350 293° West 97 112 1,700 -450 Descending Miami Center
Sat 01:30:34 PM 27.6339 -80.3589 290° West 91 105 900 -600 Descending Miami Center
Sat 01:31:34 PM 27.6436 -80.3872 291° West 91 105 500 -300 Descending Miami Center
Sat 01:32:34 PM 27.6492 -80.4131 284° West 86 99 300  Descending Miami Center
Sat 01:33:34 PM 27.6592 -80.4322 301° West 130 150 500 500 Climbing Miami Center
Sat 01:34:34 PM 27.6586 -80.4581 269° West 103 119 1,300 700 Climbing Miami Center
Sat 01:35:34 PM 27.6558 -80.4836 263° West 98 113 1,900 800 Climbing Miami Center
Sat 01:36:34 PM 27.6531 -80.5142 264° West 98 113 2,900 700 Climbing Miami Center
Sat 01:37:34 PM 27.6522 -80.5469 268° West 98 113 3,300 500 Climbing Miami Center
Sat 01:38:34 PM 27.6453 -80.5725 253° West 98 113 3,900 400 Climbing Miami Center
Sat 01:39:34 PM 27.6239 -80.5906 217° Southwest 98 113 4,100 100 Climbing Miami Center
Sat 01:40:34 PM 27.6003 -80.6131 220° Southwest 115 132 4,100  Level Miami Center
Sat 01:41:34 PM 27.5767 -80.6406 226° Southwest 115 132 4,100 -50 Level Miami Center
Sat 01:42:34 PM 27.5531 -80.6631 220° Southwest 115 132 4,000 -50 Descending Miami Center
Sat 01:43:34 PM 27.5294 -80.6881 223° Southwest 121 139 4,000  Level Miami Center
Sat 01:44:34 PM 27.5058 -80.7108 221° Southwest 116 133 4,000  Level Miami Center
Sat 01:45:34 PM 27.4825 -80.7333 221° Southwest 116 133 4,000 50 Level Miami Center
Sat 01:46:34 PM 27.4586 -80.7606 225° Southwest 116 133 4,100 50 Climbing Miami Center
Sat 01:47:34 PM 27.4331 -80.7856 221° Southwest 122 140 4,100  Level Miami Center
Sat 01:48:34 PM 27.4114 -80.8081 223° Southwest 122 140 4,100  Level Miami Center
Sat 01:49:34 PM 27.3856 -80.8353 223° Southwest 117 135 4,100  Level Miami Center
Sat 01:50:34 PM 27.3619 -80.8603 223° Southwest 117 135 4,100  Level Miami Center
Sat 01:51:34 PM 27.3386 -80.8806 218° Southwest 117 135 4,100  Level Miami Center
Sat 01:52:34 PM 27.3147 -80.9078 225° Southwest 117 135 4,100  Level Miami Center
Sat 01:53:34 PM 27.2892 -80.9303 218° Southwest 117 135 4,100  Level Miami Center
Sat 01:54:34 PM 27.2697 -80.9528 226° Southwest 117 135 4,100  Level Miami Center
Sat 01:55:34 PM 27.2439 -80.9775 220° Southwest 117 135 4,100  Level Miami Center
Sat 01:56:34 PM 27.2161 -81.0022 218° Southwest 122 140 4,100  Level Miami Center
Sat 01:57:34 PM 27.1881 -81.0317 223° Southwest 122 140 4,100  Level Miami Center
Sat 01:58:34 PM 27.1786 -81.0664 253° West 122 140 4,100 -50 Level Miami Center
Sat 01:59:34 PM 27.1592 -81.0889 226° Southwest 117 135 4,000 -50 Descending Miami Center
Sat 02:00:34 PM 27.1358 -81.1092 218° Southwest 117 135 4,000  Level Miami Center
Sat 02:01:34 PM 27.1078 -81.1314 215° Southwest 111 128 4,000  Level Miami Center
Sat 02:02:34 PM 27.0842 -81.1561 223° Southwest 111 128 4,000  Level Miami Center
Sat 02:03:34 PM 27.0586 -81.1739 212° Southwest 118 136 4,000  Level Miami Center
Sat 02:04:34 PM 27.0286 -81.1961 213° Southwest 124 143 4,000  Level Miami Center
Sat 02:05:34 PM 27.0011 -81.2114 206° Southwest 119 137 4,000  Level Miami Center
Sat 02:06:34 PM 26.9733 -81.2314 213° Southwest 119 137 4,000  Level Miami Center
Sat 02:07:34 PM 26.9456 -81.2511 212° Southwest 119 137 4,000  Level Miami Center
Sat 02:08:34 PM 26.9158 -81.2711 211° Southwest 119 137 4,000  Level Miami Center
Sat 02:09:34 PM 26.8881 -81.2908 212° Southwest 124 143 4,000  Level Miami Center
Sat 02:10:34 PM 26.8583 -81.3083 208° Southwest 124 143 4,000  Level Miami Center
Sat 02:11:34 PM 26.8286 -81.3283 211° Southwest 124 143 4,000  Level Miami Center
Sat 02:12:34 PM 26.8008 -81.3481 212° Southwest 124 143 4,000 -100 Level Miami Center
Sat 02:13:34 PM 26.7708 -81.3703 213° Southwest 124 143 3,800 -200 Descending Miami Center
Sat 02:15:00 PM 26.7200 -81.4042 211° Southwest  Level FlightAware Approximate
Sat 02:22:00 PM 26.4718 -81.5693 211° Southwest  Level FlightAware Approximate
Sat 02:23:00 PM 26.4363 -81.5928 211° Southwest  Level FlightAware Approximate
Sat 02:24:00 PM 26.4008 -81.6164 211° Southwest  Level FlightAware Approximate
Sat 02:25:00 PM 26.3653 -81.6399 211° Southwest  Level FlightAware Approximate
Sat 02:26:00 PM 26.3281 -81.6637 209° Southwest  Level FlightAware Approximate
Sat 02:27:00 PM 26.2921 -81.6862 209° Southwest  Level FlightAware Approximate
Sat 02:28:00 PM 26.2561 -81.7087 209° Southwest  Level FlightAware Approximate
Sat 02:29:00 PM 26.2201 -81.7312 209° Southwest  Level FlightAware Approximate
Sat 02:30:00 PM 26.1826 -81.7504 204° Southwest  Level FlightAware Approximate
Sat 02:31:00 PM 26.1500 -81.7667 204° Southwest  Level FlightAware Approximate
Sat 02:32:00 PM 26.1524 -81.7756 204° Southwest  Level Estimated
Sat 02:33:00 PM 26.1524 -81.7756 204° Southwest  Level Estimated
Sat 02:34:00 PM 26.1524 -81.7756 204° Southwest  Level Estimated
Sat 02:35:00 PM 26.1524 -81.7756 204° Southwest  Level Estimated
Sat 02:36:00 PM 26.1524 -81.7756 204° Southwest  Level Estimated
Sat 02:37:00 PM 26.1524 -81.7756 204° Southwest  Level Estimated
Sat 02:38:00 PM 26.1524 -81.7756 204° Southwest  Level Estimated
Sat 02:39:00 PM 26.1524 -81.7756 204° Southwest  Level Estimated
Sat 02:40:00 PM 26.1524 -81.7756 204° Southwest  Level Estimated
Sat 02:41:00 PM 26.1524 -81.7756 204° Southwest  Level Estimated
Sat 02:42:00 PM 26.1524 -81.7756 204° Southwest  Level Estimated
Sat 02:43:00 PM 26.1524 -81.7756 204° Southwest  Level Estimated
Sat 02:44:00 PM 26.1524 -81.7756 204° Southwest  Level Estimated
Sat 02:45:00 PM 26.1524 -81.7756 204° Southwest  Level Estimated

Login

Don't have an account? Register now (free) for customized features, flight alerts, and more!